createdAt,value
2019-05-15T09:12:41.530Z,74.79
2019-05-15T09:15:12.104Z,75.55
2019-05-15T09:17:42.329Z,75.10
2019-05-15T09:20:12.248Z,75.93
2019-05-15T09:22:41.687Z,75.51
2019-05-15T09:25:12.933Z,75.58
2019-05-15T09:27:43.153Z,75.74
2019-05-15T09:30:14.867Z,75.21
2019-05-15T09:32:48.685Z,74.77
2019-05-15T09:35:20.069Z,74.59
2019-05-15T09:37:54.179Z,75.00
2019-05-15T09:40:41.816Z,74.55
2019-05-15T09:42:58.336Z,74.33
2019-05-15T09:45:33.604Z,74.56
2019-05-15T09:48:02.650Z,74.56
2019-05-15T09:50:33.906Z,74.94
2019-05-15T09:53:05.607Z,74.57
2019-05-15T09:55:38.305Z,74.14
2019-05-15T09:58:08.315Z,74.02
2019-05-15T10:00:38.590Z,74.33
2019-05-15T10:03:09.571Z,73.80
2019-05-15T10:05:39.279Z,72.96
2019-05-15T10:08:09.111Z,72.20
2019-05-15T10:10:38.697Z,71.94
2019-05-15T10:13:09.011Z,72.01
2019-05-15T10:15:40.293Z,72.94
2019-05-15T10:18:10.063Z,72.45
2019-05-15T10:20:39.784Z,72.81
2019-05-15T10:23:11.493Z,73.21
2019-05-15T10:25:41.917Z,73.36
2019-05-15T10:28:15.063Z,72.39
2019-05-15T10:30:42.922Z,72.73
2019-05-15T10:33:12.243Z,72.91
2019-05-15T10:35:43.565Z,72.98
2019-05-15T10:38:16.057Z,73.39
2019-05-15T10:40:59.880Z,73.16
2019-05-15T10:43:20.707Z,73.12
2019-05-15T10:45:54.194Z,72.77
2019-05-15T10:48:32.169Z,72.51
2019-05-15T10:51:07.165Z,72.55
2019-05-15T10:53:33.114Z,72.49
2019-05-15T10:56:04.547Z,72.21
2019-05-15T10:58:35.549Z,72.54
2019-05-15T11:01:04.892Z,73.32
2019-05-15T11:03:35.064Z,73.82
2019-05-15T11:06:04.631Z,73.83
2019-05-15T11:08:40.049Z,74.70
2019-05-15T11:11:05.737Z,75.05
2019-05-15T11:13:35.063Z,76.17
2019-05-15T11:16:04.611Z,76.46
2019-05-15T11:18:34.060Z,77.04
2019-05-15T11:21:08.212Z,77.37
2019-05-15T11:23:39.448Z,76.76
2019-05-15T11:26:08.925Z,76.95
2019-05-15T11:28:40.877Z,76.79
2019-05-15T11:31:10.656Z,77.34
2019-05-15T11:33:40.414Z,77.69
2019-05-15T11:36:10.052Z,77.18
2019-05-15T11:38:40.273Z,76.87
2019-05-15T11:41:09.577Z,76.41
2019-05-15T11:43:39.200Z,77.39
2019-05-15T11:46:09.949Z,77.30
2019-05-15T11:48:41.439Z,77.79
2019-05-15T11:51:11.090Z,77.74
2019-05-15T11:53:40.506Z,78.08
2019-05-15T11:56:10.144Z,77.46
2019-05-15T11:58:41.151Z,76.93
2019-05-15T12:01:10.904Z,76.46
2019-05-15T12:03:40.309Z,76.83
2019-05-15T12:06:18.719Z,76.35
2019-05-15T12:08:40.837Z,76.29
2019-05-15T12:11:26.975Z,75.71
2019-05-15T12:13:42.208Z,75.54
2019-05-15T12:16:11.767Z,75.70
2019-05-15T12:18:48.288Z,75.46
2019-05-15T12:21:19.740Z,76.99
2019-05-15T12:23:48.757Z,77.35
2019-05-15T12:26:18.322Z,77.22
2019-05-15T12:28:49.324Z,77.45
2019-05-15T12:31:24.364Z,77.30
2019-05-15T12:33:50.311Z,77.84
2019-05-15T12:38:51.235Z,77.65
2019-05-15T13:01:32.014Z,78.80
2019-05-15T13:04:01.810Z,78.42
2019-05-15T13:06:39.988Z,78.98
2019-05-15T13:09:04.377Z,78.96
2019-05-15T13:11:34.387Z,79.01
2019-05-15T13:14:08.177Z,78.61
2019-05-15T13:16:39.029Z,79.04
2019-05-15T13:19:08.902Z,79.01
2019-05-15T13:21:41.336Z,78.88
2019-05-15T13:24:10.263Z,78.47
2019-05-15T13:26:41.262Z,78.51
2019-05-15T13:29:10.969Z,78.61
2019-05-15T13:31:42.180Z,79.42
2019-05-15T13:34:13.486Z,78.94
2019-05-15T13:36:43.448Z,78.68
2019-05-15T13:39:14.901Z,78.21
2019-05-15T13:41:44.731Z,78.15
2019-05-15T13:44:14.386Z,78.09
2019-05-15T13:46:44.075Z,77.97
2019-05-15T13:49:13.802Z,78.41
2019-05-15T13:51:43.174Z,79.03
2019-05-15T13:54:12.834Z,78.79
2019-05-15T13:56:42.556Z,78.33
2019-05-15T13:59:14.147Z,78.53
2019-05-15T14:01:43.501Z,78.51
2019-05-15T14:04:12.910Z,78.90
2019-05-15T14:06:44.987Z,78.80
2019-05-15T14:09:16.461Z,78.58
2019-05-15T14:11:49.129Z,78.59
2019-05-15T14:14:17.184Z,78.72
2019-05-15T14:16:48.939Z,78.42
2019-05-15T14:19:18.097Z,78.80
2019-05-15T14:21:49.030Z,78.99
2019-05-15T14:24:21.391Z,80.54
2019-05-15T14:27:12.972Z,80.28
2019-05-15T14:29:35.208Z,79.81
2019-05-15T14:32:11.246Z,79.93
2019-05-15T14:35:02.258Z,79.82
2019-05-15T14:38:01.580Z,79.88
2019-05-15T14:47:09.934Z,79.87
2019-05-15T14:49:45.033Z,79.82
2019-05-15T14:52:09.842Z,79.72
2019-05-15T14:54:39.101Z,80.14
2019-05-15T14:57:08.748Z,80.77
2019-05-15T14:59:38.286Z,81.82
2019-05-15T15:02:09.088Z,81.87
2019-05-15T15:04:39.219Z,81.13
2019-05-15T15:07:08.822Z,81.25
2019-05-15T15:09:37.964Z,81.43
2019-05-15T15:12:08.208Z,81.47
2019-05-15T15:14:37.928Z,82.01
2019-05-15T15:17:07.173Z,82.40
2019-05-15T15:19:38.671Z,82.08
2019-05-15T15:22:08.693Z,81.63
2019-05-15T15:24:39.015Z,81.27
2019-05-15T15:27:08.431Z,81.21
2019-05-15T15:29:38.887Z,81.11
2019-05-15T15:32:08.154Z,81.27
2019-05-15T15:34:38.925Z,82.07
2019-05-15T15:37:08.581Z,81.66
2019-05-15T15:39:38.644Z,81.44
2019-05-15T15:42:08.571Z,81.90
2019-05-15T15:44:38.117Z,81.56
2019-05-15T15:47:08.688Z,81.56
2019-05-15T15:49:38.749Z,81.15
2019-05-15T15:52:08.740Z,81.42
2019-05-15T15:54:39.478Z,81.14
2019-05-15T15:57:08.728Z,81.42
2019-05-15T15:59:38.609Z,81.40
2019-05-15T16:02:08.843Z,81.21
2019-05-15T16:04:39.215Z,82.28
2019-05-15T16:07:09.674Z,82.01
2019-05-15T16:09:38.869Z,81.93
2019-05-15T16:12:09.642Z,81.76
2019-05-15T16:14:38.969Z,81.99
2019-05-15T16:17:08.621Z,81.68
2019-05-15T16:19:38.937Z,81.43
2019-05-15T16:22:08.837Z,81.64
2019-05-15T16:24:38.667Z,82.08
2019-05-15T16:27:09.664Z,82.31
2019-05-15T16:29:39.355Z,81.95
2019-05-15T16:32:08.828Z,82.06
2019-05-15T16:34:39.306Z,81.55
2019-05-15T16:37:09.092Z,81.94
2019-05-15T16:39:38.356Z,82.08
2019-05-15T16:42:07.570Z,82.04
2019-05-15T16:44:38.393Z,82.50
2019-05-15T16:47:08.425Z,82.28
2019-05-15T16:49:39.047Z,82.48
2019-05-15T16:52:09.213Z,82.55
2019-05-15T16:54:38.670Z,82.72
2019-05-15T16:57:09.962Z,82.75
2019-05-15T16:59:39.102Z,83.02
2019-05-15T17:02:08.934Z,82.88
2019-05-15T17:04:38.307Z,83.06
2019-05-15T17:07:07.820Z,82.52
2019-05-15T17:09:38.700Z,82.67
2019-05-15T17:12:08.700Z,82.83
2019-05-15T17:14:38.800Z,83.17
2019-05-15T17:17:08.111Z,83.34
2019-05-15T17:19:37.479Z,83.45
2019-05-15T17:22:09.291Z,83.47
2019-05-15T17:24:38.747Z,83.31
2019-05-15T17:27:10.372Z,83.28
2019-05-15T17:29:38.876Z,83.54
2019-05-15T17:32:08.567Z,83.61
2019-05-15T17:34:38.106Z,83.64
2019-05-15T17:37:07.304Z,83.22
2019-05-15T17:39:38.920Z,83.14
2019-05-15T17:42:07.175Z,83.23
2019-05-15T17:44:38.239Z,83.07
2019-05-15T17:47:09.729Z,83.12
2019-05-15T17:49:38.644Z,82.89
2019-05-15T17:52:08.891Z,82.90
2019-05-15T17:54:38.100Z,83.39
2019-05-15T17:57:09.204Z,83.32
2019-05-15T17:59:38.411Z,83.45
2019-05-15T18:02:08.542Z,83.49
2019-05-15T18:04:38.762Z,83.39
2019-05-15T18:07:08.603Z,83.63
2019-05-15T18:09:50.372Z,83.99
2019-05-15T18:12:11.248Z,84.07
2019-05-15T18:14:39.606Z,84.07
2019-05-15T18:17:08.789Z,83.98
2019-05-15T18:19:38.105Z,84.05
2019-05-15T18:22:08.927Z,84.05
2019-05-15T18:24:38.389Z,84.25
2019-05-15T18:27:08.060Z,84.26
2019-05-15T18:29:38.663Z,83.98
2019-05-15T18:32:08.624Z,83.86
2019-05-15T18:34:39.592Z,83.88
2019-05-15T18:37:08.848Z,84.20
2019-05-15T18:39:38.969Z,84.11
2019-05-15T18:42:08.319Z,83.58
2019-05-15T18:44:39.359Z,83.50
2019-05-15T18:47:08.667Z,83.62
2019-05-15T18:49:38.097Z,83.47
2019-05-15T18:52:08.793Z,83.13
2019-05-15T18:54:38.725Z,82.79
2019-05-15T18:57:08.573Z,83.16
2019-05-15T18:59:37.943Z,83.69
2019-05-15T19:02:08.026Z,83.62
2019-05-15T19:04:38.347Z,83.40
2019-05-15T19:07:08.906Z,83.56
2019-05-15T19:09:38.603Z,83.32
2019-05-15T19:12:09.244Z,83.64
2019-05-15T19:14:39.495Z,83.58
2019-05-15T19:17:09.145Z,83.64
2019-05-15T19:19:38.826Z,83.77
2019-05-15T19:22:08.143Z,83.36
2019-05-15T19:24:39.871Z,83.29
2019-05-15T19:27:08.251Z,83.33
2019-05-15T19:29:37.830Z,83.34
2019-05-15T19:32:10.656Z,83.25
2019-05-15T19:34:38.769Z,83.10
2019-05-15T19:37:08.007Z,83.30
2019-05-15T19:39:38.539Z,83.27
2019-05-15T19:42:08.939Z,83.16
2019-05-15T19:44:38.109Z,82.96
2019-05-15T19:47:07.966Z,83.39
2019-05-15T19:49:37.858Z,83.55
2019-05-15T19:52:08.541Z,83.30
2019-05-15T19:54:37.904Z,83.12
2019-05-15T19:57:08.026Z,83.66
2019-05-15T19:59:38.163Z,83.83
2019-05-15T20:02:08.538Z,83.80
2019-05-15T20:04:38.569Z,83.78
2019-05-15T20:07:08.078Z,83.86
2019-05-15T20:09:38.328Z,83.87
2019-05-15T20:12:09.069Z,83.92
2019-05-15T20:14:38.408Z,83.66
2019-05-15T20:17:08.064Z,83.43
2019-05-15T20:19:38.305Z,83.80
2019-05-15T20:22:08.032Z,83.64
2019-05-15T20:24:38.177Z,83.50
2019-05-15T20:27:08.562Z,83.80
2019-05-15T20:29:38.316Z,84.01
2019-05-15T20:32:07.670Z,83.89
2019-05-15T20:34:37.934Z,83.73
2019-05-15T20:37:07.364Z,83.50
2019-05-15T20:39:38.194Z,83.58
2019-05-15T20:42:08.836Z,83.84
2019-05-15T20:44:38.031Z,84.01
2019-05-15T20:47:08.307Z,83.88
2019-05-15T20:49:37.858Z,83.87
2019-05-15T20:52:07.019Z,83.64
2019-05-15T20:54:38.614Z,83.61
2019-05-15T20:57:08.826Z,84.07
2019-05-15T20:59:38.688Z,84.03
2019-05-15T21:02:08.212Z,84.20
2019-05-15T21:04:38.518Z,84.23
2019-05-15T21:07:07.898Z,84.10
2019-05-15T21:09:39.516Z,83.77
2019-05-15T21:12:09.843Z,83.55
2019-05-15T21:14:40.106Z,83.49
2019-05-15T21:17:09.372Z,83.75
2019-05-15T21:19:38.688Z,83.47
2019-05-15T21:22:08.312Z,83.51
2019-05-15T21:24:38.626Z,83.32
2019-05-15T21:27:07.724Z,83.62
2019-05-15T21:29:38.175Z,83.58
2019-05-15T21:32:08.455Z,83.19
2019-05-15T21:34:43.893Z,83.23
2019-05-15T21:37:08.789Z,83.00
2019-05-15T21:39:39.192Z,83.04
2019-05-15T21:42:08.986Z,83.09
2019-05-15T21:44:38.308Z,83.57
2019-05-15T21:47:08.174Z,83.77
2019-05-15T21:49:38.798Z,83.70
2019-05-15T21:52:08.151Z,83.93
2019-05-15T21:54:38.608Z,84.09
2019-05-15T21:57:28.780Z,84.18
2019-05-15T21:59:38.527Z,84.04
2019-05-15T22:02:07.636Z,83.94
2019-05-15T22:04:49.063Z,83.65
2019-05-15T22:07:09.031Z,83.72
2019-05-15T22:09:38.301Z,83.51
2019-05-15T22:12:07.421Z,83.68
2019-05-15T22:14:37.888Z,83.49
2019-05-15T22:17:09.211Z,83.81
2019-05-15T22:19:38.503Z,83.42
2019-05-15T22:22:08.767Z,83.63
2019-05-15T22:24:38.029Z,83.80
2019-05-15T22:27:09.478Z,83.57
2019-05-15T22:29:38.035Z,83.57
2019-05-15T22:32:08.190Z,83.72
2019-05-15T22:34:37.388Z,83.76
2019-05-15T22:37:06.944Z,83.79
2019-05-15T22:39:38.518Z,83.98
2019-05-15T22:42:08.220Z,83.80
2019-05-15T22:44:38.599Z,83.92
2019-05-15T22:47:07.803Z,83.70
2019-05-15T22:49:38.073Z,83.57
2019-05-15T22:52:08.606Z,83.59
2019-05-15T22:54:38.691Z,83.35
2019-05-15T22:57:07.884Z,83.62
2019-05-15T22:59:38.276Z,83.50
2019-05-15T23:02:09.274Z,83.48
2019-05-15T23:04:38.204Z,83.61
2019-05-15T23:07:08.185Z,83.63
2019-05-15T23:09:38.385Z,83.76
2019-05-15T23:12:11.323Z,83.63
2019-05-15T23:14:39.229Z,83.72
2019-05-15T23:17:08.321Z,83.61
2019-05-15T23:19:38.580Z,83.70
2019-05-15T23:22:08.347Z,83.68
2019-05-15T23:24:38.751Z,83.74
2019-05-15T23:27:08.852Z,83.66
2019-05-15T23:29:38.703Z,83.69
2019-05-15T23:32:07.993Z,83.65
2019-05-15T23:34:38.602Z,83.70
2019-05-15T23:37:08.344Z,83.41
2019-05-15T23:39:38.046Z,83.31
2019-05-15T23:42:08.857Z,83.19
2019-05-15T23:44:38.183Z,83.07
2019-05-15T23:47:07.433Z,82.95
2019-05-15T23:49:38.224Z,83.00
2019-05-15T23:52:08.880Z,83.11
2019-05-15T23:54:38.627Z,83.61
2019-05-15T23:57:08.967Z,83.64
2019-05-15T23:59:38.492Z,83.58
